AirNav   Bose Proflight aviation headeet
 
 455 users online  

9MO7 Urbana Area Medical Heliport
Urbana, Missouri, USA

GOING TO URBANA?


FAA INFORMATION EFFECTIVE 03 JANUARY 2019

Location

FAA Identifier: 9MO7
Lat/Long: 37-50-30.1270N / 093-10-00.6930W
37-50.502117N / 093-10.011550W
37.8417019 / -93.1668592
(estimated)
Elevation: 1050 ft. / 320 m (estimated)
Variation: 04E (1985)
Time zone: UTC -6 (UTC -5 during Daylight Saving Time)
Zip code: 65767

Heliport Operations

Heliport use: Private use. Permission required prior to landing
Activation date: 11/1990
Control tower: no
ARTCC: KANSAS CITY CENTER
FSS: COLUMBIA FLIGHT SERVICE STATION
Attendance: UNATNDD
Wind indicator: yes
Segmented circle: no
Lights: SS-SR
Beacon: RED ROTG BCN.

Nearby radio navigation aids

VOR radial/distance  VOR name  Freq  Var
SHYr246/29.3SUNSHINE VOR/DME108.4000E
SGFr011/30.2SPRINGFIELD VORTAC116.9004E

 
NDB name  Hdg/Dist  Freq  Var  ID
GOLDEN VALLEY141/39.538801EGLY --. .-.. -.--

Heliport Services

Runway Information

Helipad H1

Dimensions: 40 x 40 ft. / 12 x 12 m
Surface: concrete
Runway edge lights: FLOOD LIGHT.
Traffic pattern: leftleft

Heliport Ownership and Management from official FAA records

Ownership: Publicly-owned
Owner: CITY OF URBANA
PO BOX 227
URBANA, MO 65767
Phone 417-993-4643
Manager: ROD HOOPER
PO BOX 227
URBANA, MO 65767
Phone 417-993-5447

Instrument Procedures

There are no published instrument procedures at 9MO7.

Some nearby airports with instrument procedures:

M17 - Bolivar Municipal Airport (17 nm SW)
KOZS - Camdenton Memorial-Lake Regional Airport (24 nm E)
KLBO - Floyd W Jones Lebanon Airport (27 nm SE)
K15 - Grand Glaize-Osage Beach Airport (28 nm NE)
KRAW - Warsaw Municipal Airport (32 nm N)
 
Loc | Ops | Rwys | IFR | FBO | Links
Com | Nav | Svcs | Stats | Notes

Kansas City Aviation Department
 
Area around 9MO7 (Urbana Area Medical Heliport)
 
Road maps at: MapQuest Bing Google
 
Aerial photo
No photo
 
Sectional chart

 
Airport distance calculator
Flying to Urbana Area Medical Heliport? Find the distance to fly.

From to 9MO7

Sunrise and sunset
Times for 16-Jan-2019
 Local
(UTC-6)
 Zulu
(UTC)
Morning civil twilight06:5912:59
Sunrise07:2813:28
Sunset17:1723:17
Evening civil twilight17:4623:46

Current date and time
Zulu (UTC)  16-Jan-2019 06:48:07
Local (UTC-6)  16-Jan-2019 00:48:07
 
METAR
KOZS 
24nm E 
160635Z AUTO 22006KT 10SM CLR 02/01 A3017 RMK AO2
KLBO 
27nm SE 
160635Z AUTO 23004KT 10SM CLR 02/01 A3017 RMK AO2
KRAW 
32nm N 
160635Z AUTO 00000KT 1/4SM FZFG OVC001 A3016 RMK AO2
KAIZ 
34nm NE 
160556Z AUTO 13003KT 3SM BR SCT027 M01/M02 A3018 RMK AO2 SLP228 T10111017 10017 21017 400221017 50004 FZRANO
KSGF 
38nm S 
160552Z 17005KT 7SM CLR 01/M01 A3017 RMK AO2 SLP226 T00061011 10044 20006 400671011 50003
KGLY 
39nm NW 
160635Z AUTO 00000KT 3/4SM BR OVC002 M04/M04 A3017 RMK AO2
TAF
KSGF 
38nm S 
160520Z 1606/1706 19005KT P6SM SKC FM160830 21006KT P6SM OVC025 FM161300 20005KT P6SM VCSH OVC009 FM162100 17006KT P6SM OVC018 FM170000 14006KT P6SM OVC020 PROB30 1701/1705 4SM -RA OVC005
NOTAMs
Click for the latest NOTAMs
NOTAMs are issued by the DoD/FAA and will open in a separate window not controlled by AirNav.

 

 
 

Would you like to see your business listed on this page?

 If your business provides an interesting product or service to pilots, flight crews, aircraft, or users of the Urbana Area Medical Heliport, you should consider listing it here.  To start the listing process, click on the button below
 
Add a business
 

Other Pages about Urbana Area Medical Heliport

Update a link
 
Copyright © AirNav, LLC. All rights reserved. Privacy Policy  Contact